createdAt,value
2018-03-16T00:04:35.568Z,8.20
2018-03-16T00:09:29.869Z,8.20
2018-03-16T00:14:23.968Z,8.20
2018-03-16T00:19:18.409Z,8.10
2018-03-16T00:24:13.475Z,8.00
2018-03-16T00:29:07.990Z,8.00
2018-03-16T00:34:02.277Z,8.00
2018-03-16T00:38:56.569Z,7.90
2018-03-16T00:43:50.875Z,7.90
2018-03-16T00:48:45.173Z,7.90
2018-03-16T00:53:39.475Z,7.90
2018-03-16T00:58:34.550Z,7.80
2018-03-16T01:03:29.636Z,7.80
2018-03-16T01:08:23.968Z,7.80
2018-03-16T01:13:19.051Z,7.80
2018-03-16T01:18:13.372Z,7.80
2018-03-16T01:23:07.656Z,7.80
2018-03-16T01:28:01.968Z,7.80
2018-03-16T01:32:56.286Z,7.80
2018-03-16T01:37:51.359Z,7.80
2018-03-16T01:42:45.662Z,7.80
2018-03-16T01:47:39.978Z,7.90
2018-03-16T01:52:34.274Z,7.90
2018-03-16T01:57:28.733Z,7.90
2018-03-16T02:02:23.811Z,7.90
2018-03-16T02:07:18.158Z,7.90
2018-03-16T02:12:12.452Z,8.00
2018-03-16T02:17:07.517Z,8.00
2018-03-16T02:22:01.939Z,8.00
2018-03-16T02:26:56.263Z,8.00
2018-03-16T02:31:51.340Z,8.10
2018-03-16T02:36:45.649Z,8.00
2018-03-16T02:41:40.253Z,8.10
2018-03-16T02:46:34.579Z,8.00
2018-03-16T02:51:28.935Z,7.90
2018-03-16T02:56:23.388Z,7.80
2018-03-16T03:01:18.774Z,7.80
2018-03-16T03:06:13.172Z,7.80
2018-03-16T03:11:07.501Z,7.90
2018-03-16T03:16:02.049Z,7.90
2018-03-16T03:20:57.300Z,7.90
2018-03-16T03:25:51.649Z,7.90
2018-03-16T03:30:45.980Z,7.90
2018-03-16T03:35:40.341Z,7.80
2018-03-16T03:40:34.736Z,7.80
2018-03-16T03:45:28.992Z,7.90
2018-03-16T03:50:23.513Z,7.90
2018-03-16T03:55:17.866Z,7.80
2018-03-16T04:00:12.346Z,7.80
2018-03-16T04:05:06.770Z,7.90
2018-03-16T04:10:01.177Z,7.90
2018-03-16T04:14:55.329Z,7.90
2018-03-16T04:19:50.684Z,8.00
2018-03-16T04:24:45.898Z,8.10
2018-03-16T04:29:40.206Z,8.10
2018-03-16T04:34:34.708Z,8.10
2018-03-16T04:39:29.801Z,8.10
2018-03-16T04:44:24.256Z,8.10
2018-03-16T04:49:19.649Z,8.00
2018-03-16T04:54:13.958Z,8.00
2018-03-16T04:59:08.301Z,8.00
2018-03-16T05:04:03.689Z,7.90
2018-03-16T05:08:58.002Z,7.90
2018-03-16T05:13:53.231Z,8.00
2018-03-16T05:18:47.813Z,7.90
2018-03-16T05:23:42.130Z,7.90
2018-03-16T05:28:36.553Z,8.00
2018-03-16T05:33:31.666Z,8.10
2018-03-16T05:38:26.748Z,8.10
2018-03-16T05:43:21.050Z,8.10
2018-03-16T05:48:15.363Z,8.20
2018-03-16T05:53:09.695Z,8.20
2018-03-16T05:58:04.607Z,8.30
2018-03-16T06:02:59.071Z,8.30
2018-03-16T06:07:53.406Z,8.40
2018-03-16T06:12:47.743Z,8.50
2018-03-16T06:17:42.135Z,8.50
2018-03-16T06:22:37.215Z,8.60
2018-03-16T06:27:31.971Z,8.60
2018-03-16T06:32:26.274Z,8.70
2018-03-16T06:37:20.596Z,8.80
2018-03-16T06:42:14.926Z,8.90
2018-03-16T06:47:09.251Z,8.90
2018-03-16T06:52:03.795Z,8.90
2018-03-16T06:56:58.224Z,8.90
2018-03-16T07:01:52.600Z,8.90
2018-03-16T07:06:46.927Z,8.90
2018-03-16T07:11:41.253Z,9.00
2018-03-16T07:16:35.597Z,9.00
2018-03-16T07:21:31.108Z,9.00
2018-03-16T07:26:26.206Z,9.20
2018-03-16T07:31:20.792Z,9.20
2018-03-16T07:36:15.106Z,9.30
2018-03-16T07:41:09.599Z,9.30
2018-03-16T07:46:04.050Z,9.30
2018-03-16T07:50:59.125Z,9.30
2018-03-16T07:55:53.437Z,9.30
2018-03-16T08:00:47.744Z,9.30
2018-03-16T08:05:42.071Z,9.30
2018-03-16T08:10:37.464Z,9.50
2018-03-16T08:15:31.916Z,9.50
2018-03-16T08:20:26.240Z,9.50
2018-03-16T08:25:20.663Z,9.50
2018-03-16T08:30:15.046Z,9.60
2018-03-16T08:35:09.515Z,9.70
2018-03-16T08:40:04.362Z,9.90
2018-03-16T08:44:58.685Z,9.90
2018-03-16T08:49:53.284Z,10.10
2018-03-16T08:54:47.604Z,10.20
2018-03-16T08:59:41.978Z,10.40
2018-03-16T09:04:37.240Z,10.60
2018-03-16T09:09:31.566Z,10.50
2018-03-16T09:14:26.221Z,10.50
2018-03-16T09:19:21.367Z,10.50
2018-03-16T09:24:15.674Z,10.50
2018-03-16T09:29:10.010Z,10.50
2018-03-16T09:34:05.092Z,10.50
2018-03-16T09:38:59.406Z,10.50
2018-03-16T09:43:53.728Z,10.50
2018-03-16T09:48:48.827Z,10.40
2018-03-16T09:53:43.302Z,10.40
2018-03-16T09:58:38.719Z,10.30
2018-03-16T10:03:34.082Z,10.30
2018-03-16T10:08:29.269Z,10.40
2018-03-16T10:13:23.623Z,10.40
2018-03-16T10:18:18.893Z,10.50
2018-03-16T10:23:13.504Z,10.40
2018-03-16T10:28:08.018Z,10.50
2018-03-16T10:33:02.353Z,10.50
2018-03-16T10:37:56.882Z,10.70
2018-03-16T10:42:51.196Z,10.90
2018-03-16T10:47:45.792Z,11.00
2018-03-16T10:52:40.884Z,11.60
2018-03-16T10:57:35.447Z,11.50
2018-03-16T11:02:35.419Z,11.70
2018-03-16T11:07:45.348Z,11.80
2018-03-16T11:12:39.693Z,11.80
2018-03-16T11:17:34.009Z,11.90
2018-03-16T11:22:30.524Z,12.00
2018-03-16T11:27:24.952Z,12.00
2018-03-16T11:32:19.341Z,12.00
2018-03-16T11:37:13.831Z,12.00
2018-03-16T11:42:08.138Z,12.00
2018-03-16T11:47:02.587Z,11.90
2018-03-16T11:51:57.896Z,12.00
2018-03-16T11:56:52.587Z,11.90
2018-03-16T12:01:46.903Z,12.10
2018-03-16T12:06:41.305Z,12.10
2018-03-16T12:11:35.608Z,12.10
2018-03-16T12:16:29.940Z,12.10
2018-03-16T12:21:25.058Z,12.40
2018-03-16T12:26:20.318Z,12.60
2018-03-16T12:31:14.622Z,12.50
2018-03-16T12:36:08.991Z,12.70
2018-03-16T12:41:03.427Z,12.80
2018-03-16T12:45:57.931Z,12.50
2018-03-16T12:50:52.677Z,12.30
2018-03-16T12:55:47.002Z,12.30
2018-03-16T13:00:42.268Z,12.00
2018-03-16T13:05:36.981Z,12.00
2018-03-16T13:10:31.561Z,11.90
2018-03-16T13:15:26.129Z,11.70
2018-03-16T13:20:21.437Z,11.60
2018-03-16T13:25:15.772Z,11.60
2018-03-16T13:30:11.026Z,11.30
2018-03-16T13:35:06.445Z,11.30
2018-03-16T13:40:00.785Z,11.10
2018-03-16T13:44:56.196Z,11.00
2018-03-16T13:49:50.519Z,11.00
2018-03-16T13:54:44.844Z,11.00
2018-03-16T13:59:39.170Z,11.20
2018-03-16T14:04:34.274Z,11.00
2018-03-16T14:09:29.366Z,10.70
2018-03-16T14:14:24.670Z,10.70
2018-03-16T14:19:18.975Z,10.60
2018-03-16T14:24:13.318Z,10.60
2018-03-16T14:29:08.404Z,10.20
2018-03-16T14:34:02.751Z,10.10
2018-03-16T14:38:57.879Z,10.00
2018-03-16T14:43:52.956Z,9.90
2018-03-16T14:48:47.376Z,9.90
2018-03-16T14:53:41.762Z,10.10
2018-03-16T14:58:36.252Z,10.20
2018-03-16T15:03:30.384Z,10.20
2018-03-16T15:08:24.714Z,10.30
2018-03-16T15:13:19.054Z,10.20
2018-03-16T15:18:13.135Z,10.00
2018-03-16T15:23:07.446Z,9.90
2018-03-16T15:28:01.767Z,9.80
2018-03-16T15:32:56.076Z,9.80
2018-03-16T15:37:50.381Z,9.80
2018-03-16T15:42:44.702Z,9.60
2018-03-16T15:47:39.835Z,9.00
2018-03-16T15:52:34.180Z,9.00
2018-03-16T15:57:28.598Z,8.90
2018-03-16T16:02:23.736Z,8.40
2018-03-16T16:07:18.856Z,8.20
2018-03-16T16:12:13.922Z,8.10
2018-03-16T16:17:08.277Z,8.10
2018-03-16T16:22:02.604Z,7.90
2018-03-16T16:26:56.998Z,7.90
2018-03-16T16:31:51.523Z,7.80
2018-03-16T16:36:45.908Z,7.80
2018-03-16T16:41:40.968Z,7.70
2018-03-16T16:46:35.302Z,7.60
2018-03-16T16:51:29.687Z,7.70
2018-03-16T16:56:24.066Z,7.60
2018-03-16T17:01:18.389Z,7.50
2018-03-16T17:06:12.806Z,7.20
2018-03-16T17:11:07.596Z,7.00
2018-03-16T17:16:02.394Z,6.90
2018-03-16T17:20:56.724Z,6.70
2018-03-16T17:25:51.059Z,6.50
2018-03-16T17:30:46.379Z,6.30
2018-03-16T17:35:40.772Z,6.30
2018-03-16T17:40:35.104Z,6.30
2018-03-16T17:45:30.224Z,6.00
2018-03-16T17:50:25.320Z,5.90
2018-03-16T17:55:19.807Z,5.90
2018-03-16T18:00:13.999Z,5.90
2018-03-16T18:05:08.125Z,5.70
2018-03-16T18:10:02.428Z,5.70
2018-03-16T18:14:56.822Z,5.70
2018-03-16T18:19:51.962Z,5.70
2018-03-16T18:24:47.714Z,5.60
2018-03-16T18:29:42.255Z,5.60
2018-03-16T18:34:37.171Z,5.60
2018-03-16T18:39:32.207Z,5.60
2018-03-16T18:44:26.829Z,5.60
2018-03-16T18:49:21.414Z,5.60
2018-03-16T18:54:16.179Z,5.70
2018-03-16T18:59:10.744Z,5.60
2018-03-16T19:04:06.997Z,5.40
2018-03-16T19:09:02.874Z,5.40
2018-03-16T19:13:57.790Z,5.40
2018-03-16T19:18:52.790Z,5.30
2018-03-16T19:23:48.740Z,5.30
2018-03-16T19:28:43.697Z,5.20
2018-03-16T19:33:38.399Z,5.30
2018-03-16T19:38:33.383Z,5.20
2018-03-16T19:43:28.174Z,5.20
2018-03-16T19:48:23.350Z,5.10
2018-03-16T19:53:17.697Z,5.10
2018-03-16T19:58:12.618Z,4.90
2018-03-16T20:03:08.857Z,4.90
2018-03-16T20:08:03.179Z,4.80
2018-03-16T20:12:58.037Z,4.70
2018-03-16T20:17:53.109Z,4.60
2018-03-16T20:22:47.485Z,4.50
2018-03-16T20:27:42.844Z,4.50
2018-03-16T20:32:38.015Z,4.40
2018-03-16T20:37:33.364Z,4.50
2018-03-16T20:42:28.068Z,4.50
2018-03-16T20:47:22.482Z,4.50
2018-03-16T20:52:16.801Z,4.50
2018-03-16T20:57:11.133Z,4.50
2018-03-16T21:02:05.421Z,4.50
2018-03-16T21:07:01.244Z,4.40
2018-03-16T21:11:55.558Z,4.40
2018-03-16T21:16:49.867Z,4.40
2018-03-16T21:21:44.944Z,4.40
2018-03-16T21:26:39.254Z,4.40
2018-03-16T21:31:33.573Z,4.50
2018-03-16T21:36:27.978Z,4.50
2018-03-16T21:41:22.328Z,4.50
2018-03-16T21:46:16.631Z,4.40
2018-03-16T21:51:10.990Z,4.40
2018-03-16T21:56:05.290Z,4.30
2018-03-16T22:01:00.371Z,4.40
2018-03-16T22:05:54.696Z,4.40
2018-03-16T22:10:49.133Z,4.40
2018-03-16T22:15:45.751Z,4.30
2018-03-16T22:20:41.026Z,4.20
2018-03-16T22:25:35.992Z,4.30
2018-03-16T22:30:31.836Z,4.20
2018-03-16T22:35:27.469Z,4.10
2018-03-16T22:40:23.289Z,4.10
2018-03-16T22:45:17.588Z,4.10
2018-03-16T22:50:11.945Z,4.10
2018-03-16T22:55:07.021Z,4.00
2018-03-16T23:00:01.332Z,3.90
2018-03-16T23:04:55.641Z,3.90
2018-03-16T23:09:50.791Z,4.00
2018-03-16T23:14:45.854Z,4.00
2018-03-16T23:19:40.212Z,4.00
2018-03-16T23:24:35.574Z,4.00
2018-03-16T23:29:30.745Z,4.00
2018-03-16T23:34:26.201Z,4.00
2018-03-16T23:39:20.707Z,4.00
2018-03-16T23:44:15.092Z,3.90
2018-03-16T23:49:16.713Z,3.90
2018-03-16T23:54:12.114Z,3.90
2018-03-16T23:59:06.427Z,3.80
